Time;durP1;ratioP1;P1;durP2;ratioP2;P2;SDS_P1;SDS_P2;PMS_P1;PMS_P2;Temp;Humidity;BMP_temperature;BMP_pressure;BME280_temperature;BME280_humidity;BME280_pressure;Samples;Min_cycle;Max_cycle;Signal;HPM_P1;HPM_P2
2021/11/04 00:00:07;;;;;;;;;;;;;;;;;;347114;28;810;-74
2021/11/04 00:00:18;;;;;;;;;;;;;;;;;;347293;28;984;-74
2021/11/04 00:00:45;;;;;;;;;;;;;;;;;;347203;28;932;-75
2021/11/04 00:01:02;;;;;;;;;;;;;;;;;;347282;28;1008;-74
2021/11/04 00:01:14;;;;;;;;;;;;;;;;;;345884;28;1016;-75
2021/11/04 00:01:24;;;;;;;;;;;;;;;;;;345905;28;817;-74
2021/11/04 00:01:37;;;;;;;;;;;;;;;;;;344463;28;1193;-74
2021/11/04 00:01:47;;;;;;;;;;;;;;;;;;344765;28;1028;-75
2021/11/04 00:02:04;;;;;;;;;;;;;;;;;;345790;28;968;-74
2021/11/04 00:02:15;;;;;;;;;;;;;;;;;;345798;28;1056;-73
2021/11/04 00:02:25;;;;;;;;;;;;;;;;;;345913;28;854;-73
2021/11/04 00:02:36;;;;;;;;;;;;;;;;;;344535;28;953;-74
2021/11/04 00:02:46;;;;;;;;;;;;;;;;;;344481;28;973;-73
2021/11/04 00:02:56;;;;;;;;;;;;;;;;;;344564;28;913;-74
2021/11/04 00:03:07;;;;;;;;;;;;;;;;;;344546;28;993;-73
2021/11/04 00:03:17;;;;;;;;;;;;;;;;;;344559;28;945;-74
2021/11/04 00:03:28;;;;;;;;;;;;;;;;;;344941;28;866;-72
2021/11/04 00:03:38;;;;;;;;;;;;;;;;;;345456;28;936;-73
2021/11/04 00:03:48;;;;;;;;;;;;;;;;;;345840;28;921;-74
2021/11/04 00:03:59;;;;;;;;;;;;;;;;;;345883;28;941;-73
2021/11/04 00:04:09;;;;;;;;;;;;;;;;;;345893;28;996;-74
2021/11/04 00:04:25;;;;;;;;;;;;;;;;;;345865;28;1067;-74
2021/11/04 00:04:35;;;;;;;;;;;;;;;;;;346954;28;960;-74
2021/11/04 00:04:45;;;;;;;;;;;;;;;;;;347214;28;885;-74
2021/11/04 00:04:56;;;;;;;;;;;;;;;;;;347207;28;937;-73
2021/11/04 00:05:06;;;;;;;;;;;;;;;;;;347217;28;826;-75
2021/11/04 00:05:17;;;;;;;;;;;;;;;;;;347284;28;921;-74
2021/11/04 00:05:28;;;;;;;;;;;;;;;;;;345922;28;1021;-74
2021/11/04 00:05:38;;;;;;;;;;;;;;;;;;347641;28;1205;-74
2021/11/04 00:05:49;;;;;;;;;;;;;;;;;;348627;28;808;-74
2021/11/04 00:05:59;;;;;;;;;;;;;;;;;;348610;28;826;-74
2021/11/04 00:06:09;;;;;;;;;;;;;;;;;;348271;28;1006;-74
2021/11/04 00:06:20;;;;;;;;;;;;;;;;;;348620;28;913;-74
2021/11/04 00:06:30;;;;;;;;;;;;;;;;;;348456;28;1375;-74
2021/11/04 00:06:41;;;;;;;;;;;;;;;;;;347177;28;1023;-74
2021/11/04 00:06:53;;;;;;;;;;;;;;;;;;347296;28;833;-74
2021/11/04 00:07:06;;;;;;;;;;;;;;;;;;347148;28;1621;-75
2021/11/04 00:07:18;;;;;;;;;;;;;;;;;;345732;28;1320;-75
2021/11/04 00:07:28;;;;;;;;;;;;;;;;;;347149;28;830;-74
2021/11/04 00:07:39;;;;;;;;;;;;;;;;;;347230;28;985;-73
2021/11/04 00:07:51;;;;;;;;;;;;;;;;;;347248;28;932;-74
2021/11/04 00:08:05;;;;;;;;;;;;;;;;;;347295;28;881;-74
2021/11/04 00:08:15;;;;;;;;;;;;;;;;;;347262;28;1060;-73
2021/11/04 00:08:26;;;;;;;;;;;;;;;;;;347279;28;866;-74
2021/11/04 00:08:36;;;;;;;;;;;;;;;;;;347289;28;861;-74
2021/11/04 00:08:47;;;;;;;;;;;;;;;;;;345784;28;1227;-74
2021/11/04 00:08:57;;;;;;;;;;;;;;;;;;344687;28;1157;-74
2021/11/04 00:09:07;;;;;;;;;;;;;;;;;;345864;28;818;-75
2021/11/04 00:09:18;;;;;;;;;;;;;;;;;;347203;28;983;-74
2021/11/04 00:09:28;;;;;;;;;;;;;;;;;;347281;28;810;-74
2021/11/04 00:09:39;;;;;;;;;;;;;;;;;;347284;28;797;-75
2021/11/04 00:10:05;;;;;;;;;;;;;;;;;;347157;28;1040;-74
2021/11/04 00:10:16;;;;;;;;;;;;;;;;;;344253;28;1910;-73
2021/11/04 00:10:26;;;;;;;;;;;;;;;;;;344126;28;1970;-71
2021/11/04 00:10:37;;;;;;;;;;;;;;;;;;344052;28;956;-73
2021/11/04 00:10:47;;;;;;;;;;;;;;;;;;344546;28;889;-72
2021/11/04 00:10:57;;;;;;;;;;;;;;;;;;344556;28;869;-74
2021/11/04 00:11:08;;;;;;;;;;;;;;;;;;345675;28;937;-73
2021/11/04 00:11:18;;;;;;;;;;;;;;;;;;344457;28;1565;-73
2021/11/04 00:11:28;;;;;;;;;;;;;;;;;;341798;29;1292;-74
2021/11/04 00:11:39;;;;;;;;;;;;;;;;;;341763;29;1397;-74
2021/11/04 00:11:49;;;;;;;;;;;;;;;;;;341879;29;1001;-74
2021/11/04 00:12:00;;;;;;;;;;;;;;;;;;343245;28;925;-75
2021/11/04 00:12:10;;;;;;;;;;;;;;;;;;343159;28;906;-74
2021/11/04 00:12:21;;;;;;;;;;;;;;;;;;343974;28;973;-75
2021/11/04 00:12:31;;;;;;;;;;;;;;;;;;344457;28;972;-75
2021/11/04 00:12:41;;;;;;;;;;;;;;;;;;344528;28;869;-74
2021/11/04 00:12:52;;;;;;;;;;;;;;;;;;344509;28;901;-73
2021/11/04 00:13:02;;;;;;;;;;;;;;;;;;344469;28;917;-74
2021/11/04 00:13:13;;;;;;;;;;;;;;;;;;344525;28;909;-74
2021/11/04 00:13:24;;;;;;;;;;;;;;;;;;344998;28;783;-74
2021/11/04 00:13:34;;;;;;;;;;;;;;;;;;344367;28;918;-74
2021/11/04 00:13:45;;;;;;;;;;;;;;;;;;344203;28;1029;-75
2021/11/04 00:13:55;;;;;;;;;;;;;;;;;;345088;28;953;-74
2021/11/04 00:14:06;;;;;;;;;;;;;;;;;;345876;28;917;-75
2021/11/04 00:14:17;;;;;;;;;;;;;;;;;;345885;28;913;-74
2021/11/04 00:14:33;;;;;;;;;;;;;;;;;;345889;28;881;-75
2021/11/04 00:14:44;;;;;;;;;;;;;;;;;;345798;28;822;-74
2021/11/04 00:15:20;;;;;;;;;;;;;;;;;;345946;28;870;-74
2021/11/04 00:15:30;;;;;;;;;;;;;;;;;;346495;28;925;-74
2021/11/04 00:15:41;;;;;;;;;;;;;;;;;;347153;28;813;-74
2021/11/04 00:15:51;;;;;;;;;;;;;;;;;;347261;28;822;-74
2021/11/04 00:16:01;;;;;;;;;;;;;;;;;;345763;28;1184;-75
2021/11/04 00:16:12;;;;;;;;;;;;;;;;;;345507;28;964;-74
2021/11/04 00:16:38;;;;;;;;;;;;;;;;;;345835;28;951;-74
2021/11/04 00:16:49;;;;;;;;;;;;;;;;;;346259;28;901;-75
2021/11/04 00:17:26;;;;;;;;;;;;;;;;;;345767;28;989;-73
2021/11/04 00:17:37;;;;;;;;;;;;;;;;;;344470;28;1417;-74
2021/11/04 00:17:47;;;;;;;;;;;;;;;;;;344393;28;925;-74
2021/11/04 00:18:24;;;;;;;;;;;;;;;;;;345919;28;884;-74
2021/11/04 00:18:34;;;;;;;;;;;;;;;;;;344268;28;1429;-73
2021/11/04 00:18:45;;;;;;;;;;;;;;;;;;343112;28;1166;-74
2021/11/04 00:18:55;;;;;;;;;;;;;;;;;;343585;28;1270;-74
2021/11/04 00:19:05;;;;;;;;;;;;;;;;;;343129;28;905;-73
2021/11/04 00:19:16;;;;;;;;;;;;;;;;;;343140;28;953;-73
2021/11/04 00:19:42;;;;;;;;;;;;;;;;;;343209;28;448;-74
2021/11/04 00:19:52;;;;;;;;;;;;;;;;;;341762;29;1240;-75
2021/11/04 00:20:07;;;;;;;;;;;;;;;;;;340443;29;796;-75
2021/11/04 00:20:43;;;;;;;;;;;;;;;;;;341355;29;926;-74
2021/11/04 00:21:02;;;;;;;;;;;;;;;;;;342754;28;827;-74
2021/11/04 00:21:19;;;;;;;;;;;;;;;;;;344523;28;996;-74
2021/11/04 00:21:29;;;;;;;;;;;;;;;;;;344539;28;838;-73
2021/11/04 00:21:40;;;;;;;;;;;;;;;;;;343045;28;1590;-74
2021/11/04 00:21:50;;;;;;;;;;;;;;;;;;344103;28;894;-73
2021/11/04 00:22:27;;;;;;;;;;;;;;;;;;347154;28;846;-74
2021/11/04 00:22:38;;;;;;;;;;;;;;;;;;345846;28;941;-73
2021/11/04 00:22:48;;;;;;;;;;;;;;;;;;345897;28;877;-74
2021/11/04 00:22:59;;;;;;;;;;;;;;;;;;345866;28;921;-73
2021/11/04 00:23:15;;;;;;;;;;;;;;;;;;345888;28;814;-73
2021/11/04 00:23:26;;;;;;;;;;;;;;;;;;344360;28;1256;-74
2021/11/04 00:23:36;;;;;;;;;;;;;;;;;;344525;28;873;-74
2021/11/04 00:23:47;;;;;;;;;;;;;;;;;;344482;28;1057;-75
2021/11/04 00:23:57;;;;;;;;;;;;;;;;;;343188;28;907;-74
2021/11/04 00:24:08;;;;;;;;;;;;;;;;;;343202;28;910;-74
2021/11/04 00:24:37;;;;;;;;;;;;;;;;;;343047;28;1394;-74
2021/11/04 00:24:47;;;;;;;;;;;;;;;;;;344517;28;827;-74
2021/11/04 00:25:23;;;;;;;;;;;;;;;;;;345333;28;830;-74
2021/11/04 00:25:34;;;;;;;;;;;;;;;;;;345922;28;790;-74
2021/11/04 00:25:44;;;;;;;;;;;;;;;;;;345871;28;881;-74
2021/11/04 00:25:55;;;;;;;;;;;;;;;;;;345861;28;999;-74
2021/11/04 00:26:31;;;;;;;;;;;;;;;;;;345831;28;865;-74
2021/11/04 00:26:42;;;;;;;;;;;;;;;;;;344333;28;1421;-74
2021/11/04 00:26:52;;;;;;;;;;;;;;;;;;344473;28;977;-74
2021/11/04 00:27:03;;;;;;;;;;;;;;;;;;343131;28;1299;-74
2021/11/04 00:27:13;;;;;;;;;;;;;;;;;;341660;29;1227;-74
2021/11/04 00:27:24;;;;;;;;;;;;;;;;;;341761;29;925;-74
2021/11/04 00:27:40;;;;;;;;;;;;;;;;;;341719;29;993;-73
2021/11/04 00:27:50;;;;;;;;;;;;;;;;;;342449;28;918;-74
2021/11/04 00:28:01;;;;;;;;;;;;;;;;;;343759;28;873;-73
2021/11/04 00:28:27;;;;;;;;;;;;;;;;;;344489;28;1070;-73
2021/11/04 00:28:37;;;;;;;;;;;;;;;;;;345133;28;977;-74
2021/11/04 00:28:48;;;;;;;;;;;;;;;;;;345816;28;897;-74
2021/11/04 00:28:58;;;;;;;;;;;;;;;;;;346353;28;806;-74
2021/11/04 00:29:08;;;;;;;;;;;;;;;;;;344993;28;1287;-73
2021/11/04 00:29:19;;;;;;;;;;;;;;;;;;345904;28;892;-73
2021/11/04 00:29:29;;;;;;;;;;;;;;;;;;345860;28;976;-75
2021/11/04 00:29:55;;;;;;;;;;;;;;;;;;345907;28;814;-74
2021/11/04 00:30:21;;;;;;;;;;;;;;;;;;345896;28;846;-74
2021/11/04 00:30:31;;;;;;;;;;;;;;;;;;344473;28;739;-75
2021/11/04 00:30:42;;;;;;;;;;;;;;;;;;344532;28;1020;-75
2021/11/04 00:30:52;;;;;;;;;;;;;;;;;;344491;28;933;-74
2021/11/04 00:31:02;;;;;;;;;;;;;;;;;;345176;28;1441;-75
2021/11/04 00:31:13;;;;;;;;;;;;;;;;;;345763;28;889;-74
2021/11/04 00:31:24;;;;;;;;;;;;;;;;;;345788;28;1444;-74
2021/11/04 00:31:34;;;;;;;;;;;;;;;;;;345782;28;1265;-75
2021/11/04 00:31:51;;;;;;;;;;;;;;;;;;345920;28;885;-74
2021/11/04 00:32:02;;;;;;;;;;;;;;;;;;345845;28;815;-74
2021/11/04 00:32:12;;;;;;;;;;;;;;;;;;345881;28;837;-74
2021/11/04 00:32:23;;;;;;;;;;;;;;;;;;345830;28;842;-74
2021/11/04 00:32:33;;;;;;;;;;;;;;;;;;347176;28;873;-73
2021/11/04 00:32:48;;;;;;;;;;;;;;;;;;347171;28;976;-73
2021/11/04 00:32:58;;;;;;;;;;;;;;;;;;346509;28;973;-74
2021/11/04 00:33:09;;;;;;;;;;;;;;;;;;346528;28;854;-73
2021/11/04 00:33:19;;;;;;;;;;;;;;;;;;347178;28;822;-74
2021/11/04 00:33:29;;;;;;;;;;;;;;;;;;347187;28;854;-74
2021/11/04 00:33:40;;;;;;;;;;;;;;;;;;345492;28;1053;-74
2021/11/04 00:33:55;;;;;;;;;;;;;;;;;;345875;28;818;-74
2021/11/04 00:34:05;;;;;;;;;;;;;;;;;;345818;28;799;-75
2021/11/04 00:34:16;;;;;;;;;;;;;;;;;;345394;28;1016;-75
2021/11/04 00:34:26;;;;;;;;;;;;;;;;;;343978;28;1284;-74
2021/11/04 00:34:52;;;;;;;;;;;;;;;;;;343202;28;922;-74
2021/11/04 00:35:04;;;;;;;;;;;;;;;;;;343132;28;909;-74
2021/11/04 00:35:41;;;;;;;;;;;;;;;;;;345767;28;921;-73
2021/11/04 00:35:51;;;;;;;;;;;;;;;;;;345827;28;917;-74
2021/11/04 00:36:02;;;;;;;;;;;;;;;;;;344530;28;857;-72
2021/11/04 00:36:12;;;;;;;;;;;;;;;;;;344516;28;815;-74
2021/11/04 00:36:23;;;;;;;;;;;;;;;;;;345193;28;802;-74
2021/11/04 00:36:33;;;;;;;;;;;;;;;;;;346531;28;873;-73
2021/11/04 00:36:50;;;;;;;;;;;;;;;;;;347187;28;953;-73
2021/11/04 00:37:00;;;;;;;;;;;;;;;;;;346384;28;936;-74
2021/11/04 00:37:10;;;;;;;;;;;;;;;;;;346459;28;977;-72
2021/11/04 00:37:21;;;;;;;;;;;;;;;;;;347214;28;996;-70
2021/11/04 00:37:46;;;;;;;;;;;;;;;;;;347029;28;1424;-74
2021/11/04 00:38:03;;;;;;;;;;;;;;;;;;348563;28;830;-74
2021/11/04 00:38:13;;;;;;;;;;;;;;;;;;348576;28;973;-75
2021/11/04 00:38:24;;;;;;;;;;;;;;;;;;347108;28;1248;-73
2021/11/04 00:38:34;;;;;;;;;;;;;;;;;;345727;28;1328;-74
2021/11/04 00:38:46;;;;;;;;;;;;;;;;;;345861;28;834;-74
2021/11/04 00:38:56;;;;;;;;;;;;;;;;;;345832;28;1211;-74
2021/11/04 00:39:07;;;;;;;;;;;;;;;;;;345877;28;941;-74
2021/11/04 00:39:17;;;;;;;;;;;;;;;;;;344392;28;1166;-73
2021/11/04 00:39:28;;;;;;;;;;;;;;;;;;342493;28;803;-75
2021/11/04 00:39:38;;;;;;;;;;;;;;;;;;341815;29;783;-74
2021/11/04 00:39:48;;;;;;;;;;;;;;;;;;341791;29;910;-73
2021/11/04 00:39:59;;;;;;;;;;;;;;;;;;341835;29;835;-74
2021/11/04 00:40:10;;;;;;;;;;;;;;;;;;342859;28;1258;-75
2021/11/04 00:40:21;;;;;;;;;;;;;;;;;;343060;28;977;-73
2021/11/04 00:40:32;;;;;;;;;;;;;;;;;;342736;28;1366;-74
2021/11/04 00:40:58;;;;;;;;;;;;;;;;;;342751;28;936;-74
2021/11/04 00:41:08;;;;;;;;;;;;;;;;;;343120;28;926;-74
2021/11/04 00:41:19;;;;;;;;;;;;;;;;;;343140;28;847;-73
2021/11/04 00:41:29;;;;;;;;;;;;;;;;;;344398;28;1516;-75
2021/11/04 00:41:40;;;;;;;;;;;;;;;;;;344482;28;806;-74
2021/11/04 00:41:55;;;;;;;;;;;;;;;;;;344531;28;913;-73
2021/11/04 00:42:05;;;;;;;;;;;;;;;;;;343738;28;1191;-73
2021/11/04 00:42:16;;;;;;;;;;;;;;;;;;344391;28;1001;-73
2021/11/04 00:42:42;;;;;;;;;;;;;;;;;;344916;28;918;-72
2021/11/04 00:42:52;;;;;;;;;;;;;;;;;;345782;28;965;-74
2021/11/04 00:43:03;;;;;;;;;;;;;;;;;;345883;28;823;-74
2021/11/04 00:43:13;;;;;;;;;;;;;;;;;;344513;28;977;-72
2021/11/04 00:43:24;;;;;;;;;;;;;;;;;;343521;28;1381;-73
2021/11/04 00:43:34;;;;;;;;;;;;;;;;;;343137;28;925;-74
2021/11/04 00:43:45;;;;;;;;;;;;;;;;;;343126;28;973;-74
2021/11/04 00:44:21;;;;;;;;;;;;;;;;;;343629;28;926;-75
2021/11/04 00:44:38;;;;;;;;;;;;;;;;;;344359;28;1060;-74
2021/11/04 00:44:54;;;;;;;;;;;;;;;;;;344514;28;1056;-74
2021/11/04 00:45:05;;;;;;;;;;;;;;;;;;344473;28;1036;-72
2021/11/04 00:45:16;;;;;;;;;;;;;;;;;;345876;28;985;-73
2021/11/04 00:45:26;;;;;;;;;;;;;;;;;;345873;28;980;-75
2021/11/04 00:45:36;;;;;;;;;;;;;;;;;;345771;28;1400;-74
2021/11/04 00:46:04;;;;;;;;;;;;;;;;;;346183;28;942;-74
2021/11/04 00:46:24;;;;;;;;;;;;;;;;;;347219;28;965;-75
2021/11/04 00:47:00;;;;;;;;;;;;;;;;;;345790;28;1275;-74
2021/11/04 00:47:11;;;;;;;;;;;;;;;;;;345798;28;877;-73
2021/11/04 00:47:21;;;;;;;;;;;;;;;;;;345536;28;948;-73
2021/11/04 00:47:31;;;;;;;;;;;;;;;;;;346310;28;833;-74
2021/11/04 00:47:42;;;;;;;;;;;;;;;;;;347074;28;901;-73
2021/11/04 00:48:08;;;;;;;;;;;;;;;;;;347147;28;964;-74
2021/11/04 00:48:18;;;;;;;;;;;;;;;;;;347136;28;988;-73
2021/11/04 00:48:28;;;;;;;;;;;;;;;;;;347172;28;881;-74
2021/11/04 00:48:39;;;;;;;;;;;;;;;;;;347258;28;834;-75
2021/11/04 00:49:01;;;;;;;;;;;;;;;;;;347248;28;799;-73
2021/11/04 00:49:17;;;;;;;;;;;;;;;;;;347245;28;985;-74
2021/11/04 00:49:28;;;;;;;;;;;;;;;;;;347286;28;1035;-74
2021/11/04 00:49:38;;;;;;;;;;;;;;;;;;347224;28;869;-73
2021/11/04 00:49:49;;;;;;;;;;;;;;;;;;347224;28;861;-73
2021/11/04 00:49:59;;;;;;;;;;;;;;;;;;345840;28;925;-74
2021/11/04 00:50:11;;;;;;;;;;;;;;;;;;345839;28;810;-74
2021/11/04 00:50:23;;;;;;;;;;;;;;;;;;343957;28;1898;-72
2021/11/04 00:50:33;;;;;;;;;;;;;;;;;;344265;28;1014;-74
2021/11/04 00:50:44;;;;;;;;;;;;;;;;;;344233;28;1026;-74
2021/11/04 00:51:19;;;;;;;;;;;;;;;;;;341673;28;1369;-73
2021/11/04 00:51:36;;;;;;;;;;;;;;;;;;342589;28;1103;-74
2021/11/04 00:51:53;;;;;;;;;;;;;;;;;;343154;28;929;-74
2021/11/04 00:52:18;;;;;;;;;;;;;;;;;;343173;28;862;-74
2021/11/04 00:52:29;;;;;;;;;;;;;;;;;;345094;28;953;-73
2021/11/04 00:52:39;;;;;;;;;;;;;;;;;;345702;28;934;-73
2021/11/04 00:52:50;;;;;;;;;;;;;;;;;;346858;28;922;-74
2021/11/04 00:53:00;;;;;;;;;;;;;;;;;;348530;28;1055;-75
2021/11/04 00:53:10;;;;;;;;;;;;;;;;;;347209;28;821;-75
2021/11/04 00:53:21;;;;;;;;;;;;;;;;;;346766;28;1032;-74
2021/11/04 00:53:32;;;;;;;;;;;;;;;;;;345708;28;1275;-74
2021/11/04 00:53:42;;;;;;;;;;;;;;;;;;345772;28;774;-74
2021/11/04 00:53:52;;;;;;;;;;;;;;;;;;345817;28;985;-75
2021/11/04 00:54:03;;;;;;;;;;;;;;;;;;344439;28;1554;-75
2021/11/04 00:54:13;;;;;;;;;;;;;;;;;;344500;28;980;-75
2021/11/04 00:54:24;;;;;;;;;;;;;;;;;;344449;28;969;-73
2021/11/04 00:54:34;;;;;;;;;;;;;;;;;;343037;28;1307;-74
2021/11/04 00:54:54;;;;;;;;;;;;;;;;;;343122;28;1028;-75
2021/11/04 00:55:11;;;;;;;;;;;;;;;;;;344375;28;981;-75
2021/11/04 00:55:21;;;;;;;;;;;;;;;;;;344485;28;1024;-75
2021/11/04 00:55:32;;;;;;;;;;;;;;;;;;345599;28;1608;-75
2021/11/04 00:55:42;;;;;;;;;;;;;;;;;;345807;28;893;-74
2021/11/04 00:55:56;;;;;;;;;;;;;;;;;;343952;28;1055;-74
2021/11/04 00:56:06;;;;;;;;;;;;;;;;;;345825;28;945;-73
2021/11/04 00:56:16;;;;;;;;;;;;;;;;;;345844;28;1004;-72
2021/11/04 00:56:27;;;;;;;;;;;;;;;;;;346069;28;795;-74
2021/11/04 00:56:37;;;;;;;;;;;;;;;;;;347223;28;901;-74
2021/11/04 00:56:48;;;;;;;;;;;;;;;;;;347186;28;826;-74
2021/11/04 00:57:24;;;;;;;;;;;;;;;;;;347210;28;814;-74
2021/11/04 00:57:35;;;;;;;;;;;;;;;;;;347195;28;971;-74
2021/11/04 00:57:48;;;;;;;;;;;;;;;;;;347015;28;1016;-72
2021/11/04 00:57:58;;;;;;;;;;;;;;;;;;347224;28;813;-75
2021/11/04 00:58:34;;;;;;;;;;;;;;;;;;348623;28;878;-73
2021/11/04 00:58:49;;;;;;;;;;;;;;;;;;348569;28;1040;-75
2021/11/04 00:58:59;;;;;;;;;;;;;;;;;;347181;28;984;-74
2021/11/04 00:59:09;;;;;;;;;;;;;;;;;;345823;28;823;-74
2021/11/04 00:59:20;;;;;;;;;;;;;;;;;;345733;28;1177;-74
2021/11/04 00:59:30;;;;;;;;;;;;;;;;;;345860;28;965;-74
2021/11/04 00:59:40;;;;;;;;;;;;;;;;;;345812;28;807;-75
2021/11/04 00:59:51;;;;;;;;;;;;;;;;;;345854;28;944;-74
2021/11/04 01:00:03;;;;;;;;;;;;;;;;;;345754;28;861;-75
2021/11/04 01:00:40;;;;;;;;;;;;;;;;;;345773;28;977;-74
2021/11/04 01:00:51;;;;;;;;;;;;;;;;;;344340;28;1310;-74
2021/11/04 01:01:01;;;;;;;;;;;;;;;;;;343144;28;818;-73
2021/11/04 01:01:27;;;;;;;;;;;;;;;;;;343175;28;807;-74
2021/11/04 01:01:37;;;;;;;;;;;;;;;;;;344464;28;990;-75
2021/11/04 01:01:48;;;;;;;;;;;;;;;;;;344422;28;1189;-74
2021/11/04 01:01:58;;;;;;;;;;;;;;;;;;344489;28;988;-74
2021/11/04 01:02:09;;;;;;;;;;;;;;;;;;344430;28;850;-74
2021/11/04 01:02:20;;;;;;;;;;;;;;;;;;344386;28;943;-74
2021/11/04 01:02:30;;;;;;;;;;;;;;;;;;344482;28;917;-74
2021/11/04 01:02:40;;;;;;;;;;;;;;;;;;344462;28;814;-74
2021/11/04 01:02:51;;;;;;;;;;;;;;;;;;344362;28;744;-73
2021/11/04 01:03:17;;;;;;;;;;;;;;;;;;345548;28;1390;-72
2021/11/04 01:03:33;;;;;;;;;;;;;;;;;;347170;28;1063;-73
2021/11/04 01:03:44;;;;;;;;;;;;;;;;;;347178;28;960;-74
2021/11/04 01:03:54;;;;;;;;;;;;;;;;;;347180;28;937;-74
2021/11/04 01:04:17;;;;;;;;;;;;;;;;;;347184;28;913;-74
2021/11/04 01:04:33;;;;;;;;;;;;;;;;;;347120;28;941;-74
2021/11/04 01:04:44;;;;;;;;;;;;;;;;;;347173;28;944;-74
2021/11/04 01:05:01;;;;;;;;;;;;;;;;;;346800;28;1518;-73
2021/11/04 01:05:11;;;;;;;;;;;;;;;;;;345767;28;1246;-75
2021/11/04 01:05:30;;;;;;;;;;;;;;;;;;344491;28;921;-74
2021/11/04 01:05:46;;;;;;;;;;;;;;;;;;343032;28;1460;-73
2021/11/04 01:05:57;;;;;;;;;;;;;;;;;;343107;28;937;-73
2021/11/04 01:06:07;;;;;;;;;;;;;;;;;;343197;28;866;-72
2021/11/04 01:06:20;;;;;;;;;;;;;;;;;;343187;28;835;-74
2021/11/04 01:06:30;;;;;;;;;;;;;;;;;;342982;28;1119;-73
2021/11/04 01:06:40;;;;;;;;;;;;;;;;;;342813;28;999;-73
2021/11/04 01:06:51;;;;;;;;;;;;;;;;;;343040;28;921;-74
2021/11/04 01:07:01;;;;;;;;;;;;;;;;;;344139;28;984;-72
2021/11/04 01:07:12;;;;;;;;;;;;;;;;;;344227;28;1395;-74
2021/11/04 01:07:22;;;;;;;;;;;;;;;;;;344456;28;933;-73
2021/11/04 01:07:33;;;;;;;;;;;;;;;;;;344527;28;806;-74
2021/11/04 01:07:43;;;;;;;;;;;;;;;;;;344453;28;846;-74
2021/11/04 01:07:54;;;;;;;;;;;;;;;;;;344267;28;978;-73
2021/11/04 01:08:04;;;;;;;;;;;;;;;;;;344393;28;977;-74
2021/11/04 01:08:21;;;;;;;;;;;;;;;;;;344472;28;965;-73
2021/11/04 01:08:57;;;;;;;;;;;;;;;;;;344291;28;973;-74
2021/11/04 01:09:07;;;;;;;;;;;;;;;;;;344144;28;1425;-73
2021/11/04 01:09:17;;;;;;;;;;;;;;;;;;346357;28;949;-71
2021/11/04 01:09:28;;;;;;;;;;;;;;;;;;347119;28;1001;-74
2021/11/04 01:09:38;;;;;;;;;;;;;;;;;;345179;28;1412;-75
2021/11/04 01:09:48;;;;;;;;;;;;;;;;;;344488;28;978;-74
2021/11/04 01:09:59;;;;;;;;;;;;;;;;;;344448;28;1141;-74
2021/11/04 01:10:09;;;;;;;;;;;;;;;;;;343029;28;1310;-75
2021/11/04 01:10:20;;;;;;;;;;;;;;;;;;343033;28;1957;-74
2021/11/04 01:10:30;;;;;;;;;;;;;;;;;;344132;28;858;-74
2021/11/04 01:10:41;;;;;;;;;;;;;;;;;;343106;28;807;-72
2021/11/04 01:10:51;;;;;;;;;;;;;;;;;;343061;28;993;-74
2021/11/04 01:11:02;;;;;;;;;;;;;;;;;;343604;28;850;-73
2021/11/04 01:11:12;;;;;;;;;;;;;;;;;;344396;28;830;-74
2021/11/04 01:11:29;;;;;;;;;;;;;;;;;;344446;28;933;-74
2021/11/04 01:11:40;;;;;;;;;;;;;;;;;;345828;28;893;-75
2021/11/04 01:12:16;;;;;;;;;;;;;;;;;;345626;28;1303;-74
2021/11/04 01:12:26;;;;;;;;;;;;;;;;;;345702;28;1181;-74
2021/11/04 01:12:37;;;;;;;;;;;;;;;;;;345478;28;998;-73
2021/11/04 01:12:50;;;;;;;;;;;;;;;;;;345518;28;1285;-74
2021/11/04 01:13:01;;;;;;;;;;;;;;;;;;345723;28;862;-75
2021/11/04 01:13:12;;;;;;;;;;;;;;;;;;345663;28;993;-74
2021/11/04 01:13:48;;;;;;;;;;;;;;;;;;345713;28;1337;-74
2021/11/04 01:13:58;;;;;;;;;;;;;;;;;;345854;28;964;-75
2021/11/04 01:14:09;;;;;;;;;;;;;;;;;;345846;28;961;-75
2021/11/04 01:14:25;;;;;;;;;;;;;;;;;;345771;28;980;-74
2021/11/04 01:14:35;;;;;;;;;;;;;;;;;;345598;28;1087;-74
2021/11/04 01:14:46;;;;;;;;;;;;;;;;;;345755;28;1313;-75
2021/11/04 01:14:56;;;;;;;;;;;;;;;;;;344428;28;990;-74
2021/11/04 01:15:07;;;;;;;;;;;;;;;;;;342982;28;1677;-73
2021/11/04 01:15:19;;;;;;;;;;;;;;;;;;342989;28;1261;-73
2021/11/04 01:15:45;;;;;;;;;;;;;;;;;;342888;28;946;-74
2021/11/04 01:15:55;;;;;;;;;;;;;;;;;;344476;28;973;-74
2021/11/04 01:16:06;;;;;;;;;;;;;;;;;;342902;28;1326;-73
2021/11/04 01:16:17;;;;;;;;;;;;;;;;;;343115;28;922;-73
2021/11/04 01:16:53;;;;;;;;;;;;;;;;;;343691;28;1172;-72
2021/11/04 01:17:03;;;;;;;;;;;;;;;;;;344378;28;1218;-72
2021/11/04 01:17:14;;;;;;;;;;;;;;;;;;344204;28;916;-74
2021/11/04 01:17:24;;;;;;;;;;;;;;;;;;344473;28;906;-71
2021/11/04 01:17:35;;;;;;;;;;;;;;;;;;344409;28;1076;-71
2021/11/04 01:17:45;;;;;;;;;;;;;;;;;;344378;28;866;-73
2021/11/04 01:18:01;;;;;;;;;;;;;;;;;;344328;28;803;-75
2021/11/04 01:18:18;;;;;;;;;;;;;;;;;;344981;28;1466;-74
2021/11/04 01:18:29;;;;;;;;;;;;;;;;;;343019;28;1637;-75
2021/11/04 01:18:40;;;;;;;;;;;;;;;;;;342788;28;1318;-73
2021/11/04 01:18:51;;;;;;;;;;;;;;;;;;341806;28;1599;-74
2021/11/04 01:19:02;;;;;;;;;;;;;;;;;;341674;29;1432;-73
2021/11/04 01:19:12;;;;;;;;;;;;;;;;;;341755;29;938;-75
2021/11/04 01:19:49;;;;;;;;;;;;;;;;;;341747;29;1017;-74
2021/11/04 01:19:59;;;;;;;;;;;;;;;;;;341729;29;839;-74
2021/11/04 01:20:10;;;;;;;;;;;;;;;;;;341718;29;910;-74
2021/11/04 01:20:20;;;;;;;;;;;;;;;;;;341790;29;827;-74
2021/11/04 01:20:31;;;;;;;;;;;;;;;;;;341678;29;982;-74
2021/11/04 01:20:57;;;;;;;;;;;;;;;;;;341801;29;1025;-74
2021/11/04 01:21:07;;;;;;;;;;;;;;;;;;344467;28;966;-73
2021/11/04 01:21:17;;;;;;;;;;;;;;;;;;344461;28;767;-74
2021/11/04 01:21:55;;;;;;;;;;;;;;;;;;344867;28;957;-73
2021/11/04 01:22:05;;;;;;;;;;;;;;;;;;345812;28;1013;-74
2021/11/04 01:22:16;;;;;;;;;;;;;;;;;;345696;28;974;-74
2021/11/04 01:22:27;;;;;;;;;;;;;;;;;;346430;28;850;-73
2021/11/04 01:22:37;;;;;;;;;;;;;;;;;;346289;28;1299;-72
2021/11/04 01:22:48;;;;;;;;;;;;;;;;;;345834;28;957;-73
2021/11/04 01:22:59;;;;;;;;;;;;;;;;;;345660;28;977;-74
2021/11/04 01:23:25;;;;;;;;;;;;;;;;;;345693;28;799;-75
2021/11/04 01:23:37;;;;;;;;;;;;;;;;;;345763;28;837;-74
2021/11/04 01:23:47;;;;;;;;;;;;;;;;;;345820;28;833;-72
2021/11/04 01:23:57;;;;;;;;;;;;;;;;;;345777;28;964;-71
2021/11/04 01:24:08;;;;;;;;;;;;;;;;;;345842;28;992;-75
2021/11/04 01:24:18;;;;;;;;;;;;;;;;;;345799;28;1012;-72
2021/11/04 01:24:44;;;;;;;;;;;;;;;;;;345699;28;1106;-72
2021/11/04 01:25:01;;;;;;;;;;;;;;;;;;347200;28;885;-75
2021/11/04 01:25:11;;;;;;;;;;;;;;;;;;345649;28;1325;-73
2021/11/04 01:25:21;;;;;;;;;;;;;;;;;;345442;28;1002;-72
2021/11/04 01:25:32;;;;;;;;;;;;;;;;;;346416;28;1530;-70
2021/11/04 01:26:08;;;;;;;;;;;;;;;;;;347113;28;1021;-74
2021/11/04 01:26:19;;;;;;;;;;;;;;;;;;345789;28;807;-74
2021/11/04 01:26:29;;;;;;;;;;;;;;;;;;345741;28;973;-72
2021/11/04 01:26:39;;;;;;;;;;;;;;;;;;345658;28;1020;-72
2021/11/04 01:26:50;;;;;;;;;;;;;;;;;;345794;28;799;-72
2021/11/04 01:27:01;;;;;;;;;;;;;;;;;;345751;28;977;-74
2021/11/04 01:27:11;;;;;;;;;;;;;;;;;;345822;28;838;-73
2021/11/04 01:27:22;;;;;;;;;;;;;;;;;;345719;28;1039;-74
2021/11/04 01:27:32;;;;;;;;;;;;;;;;;;346968;28;1421;-72
2021/11/04 01:27:43;;;;;;;;;;;;;;;;;;347148;28;790;-70
2021/11/04 01:27:53;;;;;;;;;;;;;;;;;;347186;28;810;-71
2021/11/04 01:28:08;;;;;;;;;;;;;;;;;;347077;28;786;-74
2021/11/04 01:28:18;;;;;;;;;;;;;;;;;;346892;28;854;-73
2021/11/04 01:28:29;;;;;;;;;;;;;;;;;;346836;28;933;-72
2021/11/04 01:28:55;;;;;;;;;;;;;;;;;;347132;28;981;-73
2021/11/04 01:29:31;;;;;;;;;;;;;;;;;;346071;28;881;-74
2021/11/04 01:29:41;;;;;;;;;;;;;;;;;;345809;28;830;-74
2021/11/04 01:29:51;;;;;;;;;;;;;;;;;;344378;28;1417;-74
2021/11/04 01:30:05;;;;;;;;;;;;;;;;;;345342;28;902;-74
2021/11/04 01:30:16;;;;;;;;;;;;;;;;;;346613;28;850;-74
2021/11/04 01:30:46;;;;;;;;;;;;;;;;;;341693;29;992;-74
2021/11/04 01:30:57;;;;;;;;;;;;;;;;;;341678;29;942;-75
2021/11/04 01:31:07;;;;;;;;;;;;;;;;;;341574;29;978;-74
2021/11/04 01:31:17;;;;;;;;;;;;;;;;;;341693;29;962;-74
2021/11/04 01:31:28;;;;;;;;;;;;;;;;;;341683;29;984;-74
2021/11/04 01:31:38;;;;;;;;;;;;;;;;;;341674;29;807;-74
2021/11/04 01:31:49;;;;;;;;;;;;;;;;;;341712;29;1025;-73
2021/11/04 01:32:05;;;;;;;;;;;;;;;;;;341652;29;1089;-73
2021/11/04 01:32:21;;;;;;;;;;;;;;;;;;342273;28;994;-73
2021/11/04 01:32:58;;;;;;;;;;;;;;;;;;343034;28;985;-73
2021/11/04 01:33:09;;;;;;;;;;;;;;;;;;341358;29;1269;-74
2021/11/04 01:33:19;;;;;;;;;;;;;;;;;;341602;29;938;-74
2021/11/04 01:33:30;;;;;;;;;;;;;;;;;;341624;28;977;-72
2021/11/04 01:33:40;;;;;;;;;;;;;;;;;;341728;29;1187;-74
2021/11/04 01:33:51;;;;;;;;;;;;;;;;;;341652;29;815;-72
2021/11/04 01:34:01;;;;;;;;;;;;;;;;;;341696;29;1017;-71
2021/11/04 01:34:12;;;;;;;;;;;;;;;;;;341731;29;973;-71
2021/11/04 01:34:22;;;;;;;;;;;;;;;;;;341740;29;946;-73
2021/11/04 01:34:54;;;;;;;;;;;;;;;;;;340392;29;903;-74
2021/11/04 01:35:05;;;;;;;;;;;;;;;;;;340974;29;863;-74
2021/11/04 01:35:16;;;;;;;;;;;;;;;;;;341666;29;839;-74
2021/11/04 01:35:26;;;;;;;;;;;;;;;;;;341722;29;930;-74
2021/11/04 01:35:37;;;;;;;;;;;;;;;;;;340259;29;843;-74
2021/11/04 01:35:47;;;;;;;;;;;;;;;;;;340414;29;800;-74
2021/11/04 01:35:58;;;;;;;;;;;;;;;;;;338990;29;1493;-73
2021/11/04 01:36:08;;;;;;;;;;;;;;;;;;339029;29;816;-74
2021/11/04 01:36:18;;;;;;;;;;;;;;;;;;339079;29;895;-73